SDM2424 UUWW-UWKD
Flight info
| Callsign | SDM2424 |
|---|---|
| Flight time | N/A |
| Altitude | 39000 |
| Route | KOGOM3B KOGOM L94 EKPIR M864 INKEB L94 UNORO T788 KOROM KOROM1R |
| Aircraft | B744/H-SDE3FGHIM1M2RWXY/LB1 |
Departure
| Time | 2026-05-07 18:49 |
|---|---|
| Airport | Vnukovo International Airport (UUWW) |
Arrival
| Time | N/A |
|---|---|
| Airport | Kazan International Airport (UWKD) |
| Time | Latitude | Longitude | Altitude | Speed | Heading |
|---|---|---|---|---|---|
| 2026-05-07 18:26 | 55.60173 | 37.28042 | 697 ft | 0 kts | 36° |
| 2026-05-07 18:37 | 55.60169 | 37.28036 | 697 ft | 2 kts | 37° |
| 2026-05-07 18:37 | 55.60157 | 37.28021 | 697 ft | 2 kts | 36° |
| 2026-05-07 18:37 | 55.60144 | 37.28005 | 697 ft | 2 kts | 37° |
| 2026-05-07 18:38 | 55.60137 | 37.27994 | 697 ft | 2 kts | 36° |
| 2026-05-07 18:38 | 55.60123 | 37.27982 | 697 ft | 2 kts | 7° |
| 2026-05-07 18:38 | 55.60108 | 37.27983 | 697 ft | 2 kts | 342° |
| 2026-05-07 18:38 | 55.60094 | 37.27995 | 697 ft | 2 kts | 319° |
| 2026-05-07 18:39 | 55.60084 | 37.28016 | 697 ft | 2 kts | 295° |
| 2026-05-07 18:39 | 55.60081 | 37.28025 | 697 ft | 1 kts | 287° |
| 2026-05-07 18:39 | 55.60079 | 37.28032 | 697 ft | 0 kts | 289° |
| 2026-05-07 18:43 | 55.60082 | 37.28022 | 697 ft | 3 kts | 297° |
| 2026-05-07 18:43 | 55.60109 | 37.27905 | 697 ft | 12 kts | 272° |
| 2026-05-07 18:43 | 55.60074 | 37.27811 | 697 ft | 0 kts | 227° |
| 2026-05-07 18:44 | 55.59990 | 37.27693 | 697 ft | 25 kts | 223° |
| 2026-05-07 18:44 | 55.59854 | 37.27416 | 697 ft | 32 kts | 227° |
| 2026-05-07 18:44 | 55.59692 | 37.27108 | 697 ft | 34 kts | 226° |
| 2026-05-07 18:44 | 55.59529 | 37.26774 | 697 ft | 37 kts | 243° |
| 2026-05-07 18:45 | 55.59425 | 37.26333 | 697 ft | 40 kts | 248° |
| 2026-05-07 18:45 | 55.59315 | 37.25869 | 697 ft | 42 kts | 253° |
| 2026-05-07 18:45 | 55.59207 | 37.25355 | 697 ft | 45 kts | 249° |
| 2026-05-07 18:45 | 55.59087 | 37.24814 | 697 ft | 48 kts | 247° |
| 2026-05-07 18:46 | 55.58964 | 37.24304 | 697 ft | 18 kts | 244° |
| 2026-05-07 18:46 | 55.58910 | 37.24126 | 697 ft | 14 kts | 242° |
| 2026-05-07 18:46 | 55.58873 | 37.23996 | 697 ft | 9 kts | 242° |
| 2026-05-07 18:46 | 55.58839 | 37.23882 | 697 ft | 12 kts | 239° |
| 2026-05-07 18:47 | 55.58755 | 37.23815 | 697 ft | 17 kts | 154° |
| 2026-05-07 18:47 | 55.58678 | 37.23957 | 697 ft | 16 kts | 70° |
| 2026-05-07 18:47 | 55.58705 | 37.24137 | 697 ft | 17 kts | 71° |
| 2026-05-07 18:47 | 55.58736 | 37.24276 | 697 ft | 0 kts | 68° |
| 2026-05-07 18:48 | 55.58746 | 37.24319 | 697 ft | 23 kts | 68° |
| 2026-05-07 18:48 | 55.58910 | 37.25023 | 697 ft | 97 kts | 68° |
| 2026-05-07 18:48 | 55.59168 | 37.26118 | 699 ft | 147 kts | 68° |
| 2026-05-07 18:49 | 55.59536 | 37.27918 | 1087 ft | 162 kts | 71° |
| 2026-05-07 18:49 | 55.59784 | 37.29929 | 1484 ft | 173 kts | 82° |
| 2026-05-07 18:49 | 55.59813 | 37.32037 | 2057 ft | 167 kts | 92° |
| 2026-05-07 18:49 | 55.59781 | 37.34003 | 2701 ft | 160 kts | 85° |
| 2026-05-07 18:50 | 55.59804 | 37.35082 | 3047 ft | 158 kts | 85° |
| 2026-05-07 18:50 | 55.59890 | 37.37082 | 3396 ft | 179 kts | 80° |
| 2026-05-07 18:50 | 55.60020 | 37.39498 | 3660 ft | 215 kts | 91° |
| 2026-05-07 18:50 | 55.59699 | 37.42220 | 4164 ft | 243 kts | 110° |
| 2026-05-07 18:51 | 55.58903 | 37.44820 | 5143 ft | 248 kts | 119° |
| 2026-05-07 18:51 | 55.58052 | 37.47321 | 6061 ft | 252 kts | 116° |
| 2026-05-07 18:51 | 55.57436 | 37.50214 | 6979 ft | 254 kts | 99° |
| 2026-05-07 18:51 | 55.57207 | 37.53281 | 7839 ft | 249 kts | 93° |
| 2026-05-07 18:52 | 55.57026 | 37.56280 | 8450 ft | 248 kts | 94° |
| 2026-05-07 18:52 | 55.56828 | 37.59325 | 8965 ft | 254 kts | 92° |
| 2026-05-07 18:52 | 55.56886 | 37.62507 | 9429 ft | 264 kts | 77° |
| 2026-05-07 18:52 | 55.57448 | 37.65670 | 9780 ft | 277 kts | 63° |
| 2026-05-07 18:53 | 55.58458 | 37.68687 | 10007 ft | 292 kts | 54° |
| 2026-05-07 18:53 | 55.59576 | 37.71726 | 10393 ft | 299 kts | 56° |
| 2026-05-07 18:53 | 55.60694 | 37.74847 | 10795 ft | 306 kts | 55° |
| 2026-05-07 18:53 | 55.61872 | 37.78080 | 11109 ft | 317 kts | 55° |
| 2026-05-07 18:54 | 55.63084 | 37.81437 | 11376 ft | 329 kts | 56° |
| 2026-05-07 18:54 | 55.64209 | 37.85022 | 11866 ft | 335 kts | 65° |
| 2026-05-07 18:54 | 55.64876 | 37.88981 | 12332 ft | 341 kts | 79° |
| 2026-05-07 18:54 | 55.65013 | 37.93213 | 12848 ft | 346 kts | 92° |
| 2026-05-07 18:55 | 55.64608 | 37.97402 | 13356 ft | 349 kts | 105° |
| 2026-05-07 18:55 | 55.63852 | 38.01490 | 13820 ft | 352 kts | 108° |
| 2026-05-07 18:55 | 55.63106 | 38.05650 | 14302 ft | 355 kts | 106° |
| 2026-05-07 18:55 | 55.62360 | 38.09766 | 14862 ft | 354 kts | 107° |
| 2026-05-07 18:56 | 55.61593 | 38.13886 | 15622 ft | 353 kts | 107° |
| 2026-05-07 18:56 | 55.60921 | 38.18002 | 16488 ft | 352 kts | 101° |
| 2026-05-07 18:56 | 55.60441 | 38.22214 | 17364 ft | 352 kts | 100° |
| 2026-05-07 18:56 | 55.59913 | 38.26427 | 18234 ft | 350 kts | 101° |
| 2026-05-07 18:57 | 55.59400 | 38.30637 | 19077 ft | 347 kts | 100° |
| 2026-05-07 18:57 | 55.58888 | 38.34749 | 19866 ft | 337 kts | 100° |
| 2026-05-07 18:57 | 55.58397 | 38.38700 | 20638 ft | 324 kts | 99° |
| 2026-05-07 18:57 | 55.58017 | 38.42495 | 21365 ft | 312 kts | 91° |
| 2026-05-07 18:58 | 55.58091 | 38.46228 | 21966 ft | 301 kts | 76° |
| 2026-05-07 18:58 | 55.58668 | 38.49724 | 22495 ft | 292 kts | 60° |
| 2026-05-07 18:58 | 55.59659 | 38.52766 | 22964 ft | 285 kts | 51° |
| 2026-05-07 18:58 | 55.60779 | 38.55692 | 23361 ft | 285 kts | 52° |
| 2026-05-07 18:59 | 55.61870 | 38.58620 | 23691 ft | 286 kts | 52° |
| 2026-05-07 18:59 | 55.62958 | 38.61589 | 24003 ft | 289 kts | 53° |
| 2026-05-07 18:59 | 55.63985 | 38.64623 | 24291 ft | 293 kts | 55° |
| 2026-05-07 18:59 | 55.65037 | 38.67776 | 24553 ft | 297 kts | 55° |
| 2026-05-07 19:00 | 55.66102 | 38.70958 | 24783 ft | 302 kts | 55° |
| 2026-05-07 19:00 | 55.67180 | 38.74183 | 24969 ft | 310 kts | 56° |
| 2026-05-07 19:00 | 55.68301 | 38.77556 | 25088 ft | 322 kts | 56° |
| 2026-05-07 19:00 | 55.69457 | 38.81056 | 25105 ft | 338 kts | 56° |
| 2026-05-07 19:01 | 55.70672 | 38.84773 | 24973 ft | 359 kts | 57° |
| 2026-05-07 19:01 | 55.71898 | 38.88631 | 25270 ft | 364 kts | 57° |
| 2026-05-07 19:01 | 55.73145 | 38.92514 | 25764 ft | 362 kts | 55° |
| 2026-05-07 19:01 | 55.74585 | 38.96053 | 26234 ft | 355 kts | 44° |
| 2026-05-07 19:02 | 55.76310 | 38.99198 | 26770 ft | 352 kts | 41° |
| 2026-05-07 19:02 | 55.78019 | 39.02325 | 27260 ft | 352 kts | 43° |
| 2026-05-07 19:02 | 55.79714 | 39.05444 | 27748 ft | 351 kts | 42° |
| 2026-05-07 19:02 | 55.81409 | 39.08543 | 28248 ft | 349 kts | 42° |
| 2026-05-07 19:03 | 55.83085 | 39.11616 | 28732 ft | 348 kts | 42° |
| 2026-05-07 19:03 | 55.84758 | 39.14800 | 29231 ft | 349 kts | 47° |
| 2026-05-07 19:03 | 55.86100 | 39.18369 | 29707 ft | 352 kts | 58° |
| 2026-05-07 19:03 | 55.87140 | 39.22269 | 30179 ft | 350 kts | 60° |
| 2026-05-07 19:04 | 55.88184 | 39.26153 | 30642 ft | 346 kts | 59° |
| 2026-05-07 19:04 | 55.89227 | 39.29992 | 31105 ft | 342 kts | 59° |
| 2026-05-07 19:04 | 55.90247 | 39.33737 | 31553 ft | 336 kts | 59° |
| 2026-05-07 19:04 | 55.91262 | 39.37448 | 31995 ft | 330 kts | 59° |
| 2026-05-07 19:05 | 55.92266 | 39.41108 | 32435 ft | 323 kts | 59° |
| 2026-05-07 19:05 | 55.93247 | 39.44650 | 32863 ft | 315 kts | 58° |
| 2026-05-07 19:05 | 55.94206 | 39.48119 | 33221 ft | 310 kts | 58° |
| 2026-05-07 19:05 | 55.95154 | 39.51559 | 33384 ft | 309 kts | 58° |
| 2026-05-07 19:06 | 55.96091 | 39.54975 | 33471 ft | 311 kts | 58° |
| 2026-05-07 19:06 | 55.99137 | 39.66268 | 33540 ft | 326 kts | 60° |
| 2026-05-07 19:07 | 56.01263 | 39.73538 | 33354 ft | 345 kts | 57° |
| 2026-05-07 19:07 | 56.02422 | 39.77459 | 33113 ft | 364 kts | 60° |
| 2026-05-07 19:07 | 56.03322 | 39.81790 | 32789 ft | 389 kts | 72° |
| 2026-05-07 19:08 | 56.03702 | 39.86641 | 33178 ft | 393 kts | 84° |
| 2026-05-07 19:08 | 56.03617 | 39.91520 | 33672 ft | 393 kts | 89° |
| 2026-05-07 19:08 | 56.03518 | 39.96313 | 34136 ft | 388 kts | 86° |
| 2026-05-07 19:08 | 56.03490 | 40.01086 | 34632 ft | 382 kts | 86° |
| 2026-05-07 19:09 | 56.03480 | 40.05785 | 35109 ft | 376 kts | 85° |
| 2026-05-07 19:09 | 56.03494 | 40.10425 | 35572 ft | 368 kts | 85° |
| 2026-05-07 19:09 | 56.03519 | 40.14978 | 35866 ft | 365 kts | 84° |
| 2026-05-07 19:09 | 56.03555 | 40.19545 | 35998 ft | 367 kts | 84° |
| 2026-05-07 19:10 | 56.03639 | 40.28751 | 36078 ft | 376 kts | 84° |
| 2026-05-07 19:10 | 56.03730 | 40.38214 | 36127 ft | 388 kts | 84° |
| 2026-05-07 19:11 | 56.03825 | 40.48001 | 36138 ft | 402 kts | 84° |
| 2026-05-07 19:11 | 56.03936 | 40.58176 | 36046 ft | 423 kts | 85° |
| 2026-05-07 19:12 | 56.03981 | 40.68939 | 36013 ft | 442 kts | 86° |
| 2026-05-07 19:12 | 56.04012 | 40.80101 | 36078 ft | 461 kts | 85° |
| 2026-05-07 19:13 | 56.04088 | 40.85891 | 36104 ft | 472 kts | 85° |
| 2026-05-07 19:13 | 56.04117 | 40.91829 | 36283 ft | 478 kts | 85° |
| 2026-05-07 19:13 | 56.04203 | 41.03946 | 36279 ft | 500 kts | 85° |
| 2026-05-07 19:14 | 56.04232 | 41.10178 | 36172 ft | 509 kts | 85° |
| 2026-05-07 19:14 | 56.04266 | 41.16530 | 36104 ft | 513 kts | 86° |
| 2026-05-07 19:14 | 56.04311 | 41.29241 | 36068 ft | 513 kts | 85° |
| 2026-05-07 19:15 | 56.04341 | 41.42028 | 36325 ft | 515 kts | 85° |
| 2026-05-07 19:15 | 56.04360 | 41.54681 | 35867 ft | 505 kts | 85° |
| 2026-05-07 19:16 | 56.04370 | 41.60907 | 35295 ft | 497 kts | 85° |
| 2026-05-07 19:16 | 56.04367 | 41.67008 | 35257 ft | 491 kts | 86° |
| 2026-05-07 19:16 | 56.04367 | 41.73096 | 35483 ft | 488 kts | 86° |
| 2026-05-07 19:16 | 56.04366 | 41.79205 | 35702 ft | 491 kts | 86° |
| 2026-05-07 19:17 | 56.04360 | 41.85347 | 35852 ft | 497 kts | 86° |
| 2026-05-07 19:17 | 56.04349 | 41.91543 | 35929 ft | 504 kts | 86° |
| 2026-05-07 19:17 | 56.04318 | 42.04170 | 35941 ft | 508 kts | 86° |
| 2026-05-07 19:18 | 56.04275 | 42.16703 | 35878 ft | 502 kts | 86° |
| 2026-05-07 19:18 | 56.04221 | 42.29063 | 35854 ft | 496 kts | 86° |
| 2026-05-07 19:19 | 56.04162 | 42.41367 | 35871 ft | 496 kts | 86° |
| 2026-05-07 19:19 | 56.04057 | 42.52644 | 35889 ft | 499 kts | 87° |
| 2026-05-07 19:20 | 56.03787 | 42.76883 | 35886 ft | 502 kts | 88° |
| 2026-05-07 19:21 | 56.03618 | 42.89347 | 35885 ft | 503 kts | 88° |
| 2026-05-07 19:21 | 56.03437 | 43.01826 | 35891 ft | 501 kts | 88° |
| 2026-05-07 19:22 | 56.03254 | 43.14220 | 35887 ft | 498 kts | 88° |
| 2026-05-07 19:22 | 56.03035 | 43.26472 | 35878 ft | 493 kts | 88° |
| 2026-05-07 19:23 | 56.02980 | 43.38089 | 35839 ft | 486 kts | 81° |
| 2026-05-07 19:23 | 56.03956 | 43.50346 | 35897 ft | 486 kts | 78° |
| 2026-05-07 19:24 | 56.04816 | 43.62292 | 35904 ft | 489 kts | 78° |
| 2026-05-07 19:24 | 56.05621 | 43.74202 | 35893 ft | 491 kts | 79° |
| 2026-05-07 19:25 | 56.06417 | 43.86279 | 35882 ft | 490 kts | 79° |
| 2026-05-07 19:25 | 56.06833 | 43.98445 | 35881 ft | 494 kts | 86° |
| 2026-05-07 19:26 | 56.06947 | 44.10833 | 35881 ft | 491 kts | 85° |
| 2026-05-07 19:26 | 56.07101 | 44.23154 | 35885 ft | 491 kts | 85° |
| 2026-05-07 19:27 | 56.07418 | 44.35469 | 35890 ft | 490 kts | 83° |
| 2026-05-07 19:27 | 56.07161 | 44.47850 | 35861 ft | 492 kts | 86° |
| 2026-05-07 19:28 | 56.07202 | 44.59944 | 35894 ft | 493 kts | 86° |
| 2026-05-07 19:28 | 56.07236 | 44.72419 | 35894 ft | 494 kts | 86° |
| 2026-05-07 19:29 | 56.07255 | 44.84790 | 35886 ft | 494 kts | 86° |
| 2026-05-07 19:29 | 56.07262 | 44.97170 | 35887 ft | 493 kts | 86° |
| 2026-05-07 19:30 | 56.07261 | 45.09309 | 35883 ft | 490 kts | 86° |
| 2026-05-07 19:30 | 56.07248 | 45.21416 | 35879 ft | 487 kts | 86° |
| 2026-05-07 19:31 | 56.07225 | 45.33494 | 35878 ft | 486 kts | 86° |
| 2026-05-07 19:31 | 56.07191 | 45.45596 | 35890 ft | 488 kts | 86° |
| 2026-05-07 19:32 | 56.07143 | 45.57829 | 35922 ft | 488 kts | 86° |
| 2026-05-07 19:32 | 56.07082 | 45.70186 | 35955 ft | 488 kts | 87° |
| 2026-05-07 19:33 | 56.07009 | 45.82584 | 35969 ft | 489 kts | 87° |
| 2026-05-07 19:33 | 56.06923 | 45.94944 | 35969 ft | 490 kts | 87° |
| 2026-05-07 19:34 | 56.06826 | 46.07253 | 35971 ft | 490 kts | 87° |
| 2026-05-07 19:34 | 56.06715 | 46.19626 | 35964 ft | 489 kts | 87° |
| 2026-05-07 19:35 | 56.06604 | 46.31707 | 35966 ft | 489 kts | 87° |
| 2026-05-07 19:35 | 56.06455 | 46.44599 | 35964 ft | 489 kts | 88° |
| 2026-05-07 19:36 | 56.05159 | 46.56406 | 35954 ft | 498 kts | 106° |
| 2026-05-07 19:36 | 56.02844 | 46.68015 | 35972 ft | 499 kts | 107° |
| 2026-05-07 19:37 | 56.00423 | 46.79556 | 35972 ft | 500 kts | 107° |
| 2026-05-07 19:37 | 55.97938 | 46.91186 | 35971 ft | 501 kts | 108° |
| 2026-05-07 19:38 | 55.96715 | 46.96920 | 35848 ft | 503 kts | 108° |
| 2026-05-07 19:38 | 55.95445 | 47.02778 | 35301 ft | 508 kts | 109° |
| 2026-05-07 19:38 | 55.94181 | 47.08582 | 34643 ft | 503 kts | 109° |
| 2026-05-07 19:38 | 55.92894 | 47.14396 | 33976 ft | 499 kts | 109° |
| 2026-05-07 19:39 | 55.91613 | 47.20084 | 33316 ft | 497 kts | 109° |
| 2026-05-07 19:39 | 55.90379 | 47.25797 | 32667 ft | 497 kts | 108° |
| 2026-05-07 19:39 | 55.89147 | 47.31455 | 32038 ft | 491 kts | 109° |
| 2026-05-07 19:39 | 55.87897 | 47.37075 | 31393 ft | 485 kts | 109° |
| 2026-05-07 19:40 | 55.86696 | 47.42627 | 30239 ft | 487 kts | 108° |
| 2026-05-07 19:40 | 55.85517 | 47.48125 | 29250 ft | 478 kts | 109° |
| 2026-05-07 19:40 | 55.84253 | 47.53583 | 28609 ft | 469 kts | 110° |
| 2026-05-07 19:40 | 55.83059 | 47.58890 | 28005 ft | 462 kts | 109° |
| 2026-05-07 19:41 | 55.81913 | 47.64140 | 27379 ft | 457 kts | 109° |
| 2026-05-07 19:41 | 55.80723 | 47.69382 | 26740 ft | 453 kts | 110° |
| 2026-05-07 19:41 | 55.79604 | 47.74628 | 25005 ft | 472 kts | 108° |
| 2026-05-07 19:41 | 55.78609 | 47.80191 | 23621 ft | 469 kts | 108° |
| 2026-05-07 19:42 | 55.77581 | 47.85306 | 23126 ft | 459 kts | 109° |
| 2026-05-07 19:42 | 55.76721 | 47.89419 | 21183 ft | 482 kts | 109° |
| 2026-05-07 19:42 | 55.75646 | 47.94873 | 19843 ft | 480 kts | 108° |
| 2026-05-07 19:42 | 55.74897 | 47.99407 | 19666 ft | 432 kts | 95° |
| 2026-05-07 19:43 | 55.74754 | 48.03124 | 20578 ft | 417 kts | 89° |
| 2026-05-07 19:43 | 55.74181 | 48.08464 | 19242 ft | 462 kts | 110° |
| 2026-05-07 19:43 | 55.72632 | 48.13114 | 20623 ft | 429 kts | 125° |
| 2026-05-07 19:43 | 55.71286 | 48.16419 | 21763 ft | 408 kts | 122° |